Pagrindinis puslapis
METAR-TAF:

METAR-TAF

Oro uostai :

Rionė, Danija

platuma: 55-04N, ilguma: 014-45E, Aukštis: 16 m

Dabartinis oras

Ataskaita buvo paskelbta 29 minutes, ne 05:50 UTC
Vėjas 1 kt iš Pietryčių su gūsio iki 13 kt
Temperatūra 5°C
Drėgmė 81%
Slėgis 1026 hPa
Matomumas 10 km arba daugiau

METAR: EKRN 100550Z AUTO 14001G13KT 9999 NCD 05/02 Q1026

Laikas: 08:19 (06:19 UTC)

Prognozė

Ataskaita buvo paskelbta 1 valandą ir 17 minutes, ne 05:02 UTC
Prognozė galioja nuo 10 metu 06 UTC su 10 metu 15 UTC
Vėjas 6 kt iš Vakarų
Matomumas 10 km arba daugiau
nėra debesų žemiau 1500 m ir nėra kamuolinių lietaus debesų

TAF: EKRN 100502Z 1006/1015 28006KT CAVOK

Orai ataskaitas ir orų prognozės (METAR, TAF).

turimą stotys yra geltonos ir raudonos taškus žemėlapyje.

Perkelti pele per norėdami pamatyti stoties vardą.

Tada spustelėkite, norėdami matyti oro stebėjimo ir prognozės.

Norėdami pakeisti žemėlapį: spustelėkite ant žalios mygtukų su juodo kryžiaus žemyn,; žalią mygtuką su brūkšneliu, jei norite nutolinti; arba žalių rodyklių gretimoms žemėlapius.


METAR-TAF: